Time;durP1;ratioP1;P1;durP2;ratioP2;P2;SDS_P1;SDS_P2;PMS_P1;PMS_P2;Temp;Humidity;BMP_temperature;BMP_pressure;BME280_temperature;BME280_humidity;BME280_pressure;Samples;Min_cycle;Max_cycle;Signal;HPM_P1;HPM_P2
2023/02/11 00:01:35;;;;;;;0.50;0.50;;;-0.70;98.10;;;;;;5033691;28;20221;-69
2023/02/11 00:04:01;;;;;;;0.45;0.45;;;-0.60;98.30;;;;;;5033302;28;20293;-69
2023/02/11 00:06:29;;;;;;;3.50;3.30;;;-0.60;98.40;;;;;;5032923;28;20204;-69
2023/02/11 00:08:55;;;;;;;0.40;0.40;;;-0.50;98.30;;;;;;5033044;28;20199;-69
2023/02/11 00:11:24;;;;;;;0.40;0.40;;;-0.40;98.20;;;;;;5033292;28;20167;-69
2023/02/11 00:13:50;;;;;;;0.50;0.50;;;-0.50;97.90;;;;;;5033258;28;20159;-69
2023/02/11 00:16:19;;;;;;;0.40;0.40;;;-0.60;97.80;;;;;;5033336;28;20197;-69
2023/02/11 00:18:44;;;;;;;0.40;0.40;;;-0.70;98.00;;;;;;5033053;28;20175;-69
2023/02/11 00:21:17;;;;;;;2.57;0.80;;;-0.60;98.00;;;;;;5033292;28;20175;-69
2023/02/11 00:23:44;;;;;;;0.38;0.38;;;-0.70;97.90;;;;;;5033192;28;20185;-69
2023/02/11 00:26:22;;;;;;;0.40;0.40;;;-0.70;97.90;;;;;;5032892;28;20194;-69
2023/02/11 00:28:48;;;;;;;1.00;1.00;;;-0.80;98.00;;;;;;5033159;28;20260;-69
2023/02/11 00:31:16;;;;;;;0.40;0.40;;;-0.70;98.10;;;;;;5033212;28;20199;-69
2023/02/11 00:33:43;;;;;;;0.40;0.40;;;-0.80;98.10;;;;;;5033009;28;20628;-69
2023/02/11 00:36:13;;;;;;;1.23;1.23;;;-0.80;98.20;;;;;;5031550;28;20198;-69
2023/02/11 00:38:38;;;;;;;0.43;0.43;;;-0.80;98.20;;;;;;5031830;28;20183;-69
2023/02/11 00:41:04;;;;;;;5.63;1.00;;;-0.80;98.10;;;;;;5033036;28;20531;-69
2023/02/11 00:43:29;;;;;;;1.83;1.73;;;-0.80;98.20;;;;;;5033044;28;20167;-69
2023/02/11 00:45:55;;;;;;;2.40;1.37;;;-0.80;98.20;;;;;;5032646;28;20186;-69
2023/02/11 00:48:21;;;;;;;0.40;0.40;;;-0.80;98.10;;;;;;5034980;28;20241;-69
2023/02/11 00:50:46;;;;;;;1.13;1.03;;;-0.80;98.10;;;;;;5036496;28;20175;-68
2023/02/11 00:53:12;;;;;;;1.13;1.13;;;-0.70;98.00;;;;;;5036578;28;20618;-69
2023/02/11 00:55:37;;;;;;;1.47;1.37;;;-0.70;97.90;;;;;;5036448;28;20194;-69
2023/02/11 00:58:03;;;;;;;0.37;0.37;;;-0.70;98.00;;;;;;5035985;28;20522;-69
2023/02/11 01:00:28;;;;;;;0.63;0.50;;;-0.80;97.90;;;;;;5036378;28;20246;-69
2023/02/11 01:02:54;;;;;;;0.40;0.40;;;-0.80;97.70;;;;;;5036281;28;20218;-69
2023/02/11 01:05:20;;;;;;;0.40;0.40;;;-0.80;98.00;;;;;;5036495;28;20174;-69
2023/02/11 01:07:46;;;;;;;2.65;2.42;;;-0.80;98.10;;;;;;5035830;28;20284;-68
2023/02/11 01:10:13;;;;;;;1.37;1.37;;;-0.90;98.00;;;;;;5036187;28;20215;-69
2023/02/11 01:12:39;;;;;;;0.50;0.50;;;-0.90;98.00;;;;;;5036021;28;20398;-69
2023/02/11 01:15:07;;;;;;;0.60;0.60;;;-0.90;98.00;;;;;;5036126;28;20253;-69
2023/02/11 01:17:34;;;;;;;0.40;0.40;;;-1.00;98.10;;;;;;5035807;28;20244;-69
2023/02/11 01:20:05;;;;;;;2.95;2.75;;;-0.90;98.30;;;;;;5035993;28;20178;-69
2023/02/11 01:22:33;;;;;;;1.60;1.50;;;-0.90;98.30;;;;;;5036026;28;20258;-69
2023/02/11 01:24:59;;;;;;;0.47;0.47;;;-0.90;98.30;;;;;;5035725;28;20174;-69
2023/02/11 01:27:24;;;;;;;0.70;0.70;;;-0.90;98.40;;;;;;5035542;28;20214;-69
2023/02/11 01:29:50;;;;;;;1.07;1.07;;;-1.00;98.20;;;;;;5035922;28;20581;-68
2023/02/11 01:32:16;;;;;;;1.33;1.33;;;-1.00;98.20;;;;;;5035766;28;20178;-69
2023/02/11 01:34:41;;;;;;;3.90;2.40;;;-1.00;98.30;;;;;;5035782;28;20195;-69
2023/02/11 01:37:07;;;;;;;0.40;0.40;;;-0.90;98.10;;;;;;5035313;28;20197;-69
2023/02/11 01:39:33;;;;;;;0.50;0.50;;;-0.90;97.90;;;;;;5035595;28;20171;-69
2023/02/11 01:41:59;;;;;;;0.93;0.93;;;-1.00;97.90;;;;;;5035496;28;20254;-69
2023/02/11 01:44:32;;;;;;;0.60;0.60;;;-1.00;98.00;;;;;;5035492;28;20206;-69
2023/02/11 01:46:58;;;;;;;8.13;2.22;;;-0.90;98.20;;;;;;5035310;28;20560;-69
2023/02/11 01:49:29;;;;;;;0.80;0.80;;;-0.80;97.90;;;;;;5035162;28;20244;-69
2023/02/11 01:51:59;;;;;;;0.40;0.40;;;-0.90;97.90;;;;;;5034204;28;20223;-69
2023/02/11 01:57:21;;;;;;;0.52;0.52;;;-1.00;98.10;;;;;;5035215;28;20618;-69
2023/02/11 02:00:02;;;;;;;0.55;0.55;;;-1.00;98.30;;;;;;5035262;28;20182;-68
2023/02/11 02:02:47;;;;;;;0.68;0.68;;;-1.00;98.30;;;;;;5035553;28;20174;-69
2023/02/11 02:05:41;;;;;;;1.15;0.88;;;-0.90;98.20;;;;;;5034816;28;20179;-69
2023/02/11 02:08:16;;;;;;;0.50;0.50;;;-0.90;98.20;;;;;;5034434;28;20202;-69
2023/02/11 02:10:45;;;;;;;1.52;1.02;;;-1.00;98.10;;;;;;5033813;28;20176;-69
2023/02/11 02:13:11;;;;;;;0.30;0.30;;;-0.90;97.90;;;;;;5035057;28;20189;-69
2023/02/11 02:15:39;;;;;;;1.15;1.15;;;-1.00;97.70;;;;;;5034749;28;20175;-69
2023/02/11 02:18:40;;;;;;;1.15;1.10;;;-1.00;97.70;;;;;;5034607;28;20191;-69
2023/02/11 02:21:41;;;;;;;0.50;0.50;;;-1.10;97.80;;;;;;5034877;28;20673;-69
2023/02/11 02:24:24;;;;;;;1.35;1.25;;;-1.10;98.10;;;;;;5033194;28;20588;-69
2023/02/11 02:27:24;;;;;;;0.40;0.40;;;-1.20;98.40;;;;;;5033164;28;20190;-69
2023/02/11 02:30:04;;;;;;;1.40;1.40;;;-1.20;98.60;;;;;;5034602;28;20175;-68
2023/02/11 02:32:48;;;;;;;0.75;0.75;;;-1.10;98.50;;;;;;5033312;28;20253;-69
2023/02/11 02:35:34;;;;;;;0.50;0.50;;;-1.00;98.20;;;;;;5033375;28;20589;-69
2023/02/11 02:38:14;;;;;;;0.40;0.40;;;-1.10;98.00;;;;;;5034154;28;20201;-69
2023/02/11 02:41:03;;;;;;;0.60;0.60;;;-1.20;97.90;;;;;;5034588;28;20560;-69
2023/02/11 02:43:30;;;;;;;0.40;0.40;;;-1.30;98.00;;;;;;5034536;28;20202;-69
2023/02/11 02:46:16;;;;;;;0.52;0.52;;;-1.20;98.40;;;;;;5034080;28;20261;-69
2023/02/11 02:48:42;;;;;;;0.40;0.40;;;-1.10;98.10;;;;;;5034059;28;20249;-68
2023/02/11 02:51:17;;;;;;;1.35;1.30;;;-1.00;98.10;;;;;;5034183;28;20167;-69
2023/02/11 02:54:20;;;;;;;0.40;0.40;;;-0.90;98.00;;;;;;5034362;28;20170;-69
2023/02/11 02:57:07;;;;;;;0.95;0.95;;;-0.80;98.00;;;;;;5033831;28;20190;-69
2023/02/11 02:59:57;;;;;;;0.95;0.95;;;-0.80;97.80;;;;;;5032924;28;20171;-69
2023/02/11 03:02:30;;;;;;;0.50;0.50;;;-0.80;97.70;;;;;;5034165;28;20257;-68
2023/02/11 03:05:16;;;;;;;0.50;0.50;;;-0.80;97.10;;;;;;5032625;28;20265;-68
2023/02/11 03:07:59;;;;;;;0.95;0.95;;;-0.80;96.80;;;;;;5033622;28;20202;-68
2023/02/11 03:10:30;;;;;;;1.15;1.13;;;-1.00;96.80;;;;;;5033451;28;20174;-69
2023/02/11 03:12:56;;;;;;;1.30;0.93;;;-1.00;97.10;;;;;;5034032;28;20167;-69
2023/02/11 03:15:25;;;;;;;0.50;0.50;;;-1.00;97.10;;;;;;5033682;28;20682;-69
2023/02/11 03:17:55;;;;;;;0.85;0.73;;;-1.00;97.10;;;;;;5033791;28;20253;-68
2023/02/11 03:20:22;;;;;;;0.50;0.50;;;-1.00;97.20;;;;;;5033742;28;20170;-69
2023/02/11 03:23:09;;;;;;;0.77;0.77;;;-1.00;97.30;;;;;;5033731;28;20178;-69
2023/02/11 03:25:40;;;;;;;0.50;0.50;;;-1.10;97.00;;;;;;5033736;28;20174;-69
2023/02/11 03:28:17;;;;;;;0.82;0.82;;;-1.10;97.10;;;;;;5032482;28;20273;-69
2023/02/11 03:30:54;;;;;;;0.93;0.93;;;-1.10;97.30;;;;;;5033795;28;20666;-69
2023/02/11 03:33:49;;;;;;;0.60;0.60;;;-1.00;97.20;;;;;;5033717;28;20174;-69
2023/02/11 03:36:26;;;;;;;0.50;0.50;;;-0.90;96.80;;;;;;5033713;28;20534;-69
2023/02/11 03:38:55;;;;;;;0.55;0.55;;;-0.90;96.80;;;;;;5033950;28;20170;-69
2023/02/11 03:41:23;;;;;;;0.40;0.40;;;-0.80;96.70;;;;;;5033522;28;20190;-69
2023/02/11 03:43:55;;;;;;;0.40;0.40;;;-0.90;96.50;;;;;;5033616;28;20179;-69
2023/02/11 03:46:27;;;;;;;0.52;0.52;;;-0.90;96.30;;;;;;5033220;28;20186;-69
2023/02/11 03:48:59;;;;;;;0.50;0.50;;;-0.90;96.30;;;;;;5033315;28;20206;-68
2023/02/11 03:51:26;;;;;;;0.40;0.40;;;-0.90;96.30;;;;;;5033338;28;20217;-69
2023/02/11 03:53:56;;;;;;;0.45;0.45;;;-1.00;96.20;;;;;;5032150;28;20181;-69
2023/02/11 03:56:27;;;;;;;0.40;0.40;;;-1.00;96.30;;;;;;5033163;28;20183;-69
2023/02/11 03:58:53;;;;;;;5.10;1.55;;;-1.00;96.30;;;;;;5033273;28;20163;-69
2023/02/11 04:01:18;;;;;;;0.83;0.83;;;-1.10;96.30;;;;;;5033371;28;20177;-68
2023/02/11 04:03:44;;;;;;;0.40;0.40;;;-1.10;96.40;;;;;;5033102;28;20250;-69
2023/02/11 04:06:10;;;;;;;1.03;0.87;;;-1.00;96.40;;;;;;5033048;28;20557;-68
2023/02/11 04:08:35;;;;;;;0.40;0.40;;;-1.00;96.20;;;;;;5033118;28;20345;-69
2023/02/11 04:11:01;;;;;;;0.43;0.43;;;-1.00;96.00;;;;;;5033315;28;20212;-68
2023/02/11 04:13:26;;;;;;;0.43;0.43;;;-0.90;95.90;;;;;;5033028;28;20202;-68
2023/02/11 04:15:52;;;;;;;0.40;0.40;;;-0.90;95.70;;;;;;5032954;28;20170;-69
2023/02/11 04:18:17;;;;;;;0.40;0.40;;;-1.00;95.60;;;;;;5033283;28;20538;-69
2023/02/11 04:20:43;;;;;;;0.43;0.43;;;-1.10;95.60;;;;;;5033336;28;20257;-69
2023/02/11 04:23:09;;;;;;;0.40;0.40;;;-1.10;95.60;;;;;;5035268;28;20167;-69
2023/02/11 04:25:35;;;;;;;0.40;0.40;;;-1.10;95.60;;;;;;5036927;28;20178;-69
2023/02/11 04:28:00;;;;;;;0.30;0.30;;;-1.10;95.60;;;;;;5036738;28;20272;-69
2023/02/11 04:30:26;;;;;;;0.30;0.30;;;-1.30;95.80;;;;;;5037051;28;20249;-69
2023/02/11 04:32:53;;;;;;;1.90;1.80;;;-1.30;96.00;;;;;;5036942;28;20174;-69
2023/02/11 04:35:19;;;;;;;2.25;1.33;;;-1.30;96.30;;;;;;5036746;28;20405;-69
2023/02/11 04:37:44;;;;;;;0.30;0.30;;;-1.20;96.20;;;;;;5036430;28;20195;-69
2023/02/11 04:40:10;;;;;;;0.70;0.70;;;-1.10;96.10;;;;;;5036763;28;20739;-69
2023/02/11 04:42:36;;;;;;;0.40;0.40;;;-1.00;95.50;;;;;;5035485;28;20182;-68
2023/02/11 04:45:02;;;;;;;0.40;0.40;;;-1.10;95.30;;;;;;5035188;28;20236;-69
2023/02/11 04:47:28;;;;;;;1.35;1.05;;;-1.00;95.00;;;;;;5035945;28;20821;-69
2023/02/11 04:49:54;;;;;;;1.20;1.17;;;-1.00;95.00;;;;;;5036416;28;20261;-69
2023/02/11 04:52:20;;;;;;;0.30;0.30;;;-1.10;94.90;;;;;;5036304;28;20163;-70
2023/02/11 04:54:45;;;;;;;1.23;1.13;;;-1.20;94.60;;;;;;5036499;28;20406;-69
2023/02/11 04:57:11;;;;;;;0.30;0.30;;;-1.20;94.40;;;;;;5036159;28;21034;-69
2023/02/11 04:59:37;;;;;;;2.50;2.40;;;-1.20;94.30;;;;;;5036260;28;20167;-70
2023/02/11 05:02:03;;;;;;;0.67;0.47;;;-1.30;94.30;;;;;;5036318;28;20532;-70
2023/02/11 05:04:28;;;;;;;0.40;0.40;;;-1.30;94.60;;;;;;5035034;28;20175;-70
2023/02/11 05:06:54;;;;;;;0.70;0.70;;;-1.30;94.80;;;;;;5036024;28;20551;-70
2023/02/11 05:09:20;;;;;;;1.17;1.17;;;-1.20;94.80;;;;;;5036034;28;20191;-70
2023/02/11 05:11:46;;;;;;;1.37;1.37;;;-1.10;94.60;;;;;;5036125;28;20203;-70
2023/02/11 05:14:11;;;;;;;0.50;0.50;;;-1.00;94.20;;;;;;5035903;28;20398;-69
2023/02/11 05:16:37;;;;;;;0.30;0.30;;;-1.00;93.40;;;;;;5035753;28;20194;-69
2023/02/11 05:19:03;;;;;;;0.30;0.30;;;-1.00;93.10;;;;;;5035874;28;20663;-69
2023/02/11 05:21:29;;;;;;;0.30;0.30;;;-1.10;93.30;;;;;;5035979;28;20662;-69
2023/02/11 05:23:55;;;;;;;0.67;0.67;;;-1.20;93.60;;;;;;5036040;28;20183;-69
2023/02/11 05:26:20;;;;;;;0.57;0.57;;;-1.20;93.90;;;;;;5035707;28;20605;-69
2023/02/11 05:28:46;;;;;;;0.40;0.40;;;-1.20;93.80;;;;;;5035697;28;20294;-70
2023/02/11 05:31:13;;;;;;;0.60;0.60;;;-1.20;93.90;;;;;;5034430;28;20224;-70
2023/02/11 05:33:39;;;;;;;0.50;0.50;;;-1.20;94.10;;;;;;5035218;28;20628;-69
2023/02/11 05:36:07;;;;;;;0.30;0.30;;;-1.30;94.20;;;;;;5035619;28;20233;-70
2023/02/11 05:38:33;;;;;;;0.40;0.40;;;-1.40;94.40;;;;;;5035515;28;20410;-69
2023/02/11 05:40:59;;;;;;;0.50;0.50;;;-1.50;94.70;;;;;;5035643;28;20198;-69
2023/02/11 05:43:25;;;;;;;0.40;0.40;;;-1.40;94.80;;;;;;5035474;28;20171;-69
2023/02/11 05:45:51;;;;;;;0.40;0.40;;;-1.30;94.80;;;;;;5035207;28;20409;-69
2023/02/11 05:48:17;;;;;;;0.40;0.40;;;-1.30;94.70;;;;;;5035122;28;20213;-69
2023/02/11 05:50:43;;;;;;;0.40;0.40;;;-1.20;94.60;;;;;;5035469;28;20257;-70
2023/02/11 05:53:09;;;;;;;0.40;0.40;;;-1.10;94.20;;;;;;5035411;28;20171;-70
2023/02/11 05:55:34;;;;;;;0.80;0.80;;;-1.00;93.30;;;;;;5035290;28;20394;-70
2023/02/11 05:58:00;;;;;;;0.40;0.40;;;-1.00;92.70;;;;;;5034759;28;20325;-70
2023/02/11 06:00:26;;;;;;;0.50;0.50;;;-1.10;92.80;;;;;;5033788;28;20654;-70
2023/02/11 06:02:52;;;;;;;0.88;0.88;;;-1.00;93.00;;;;;;5033731;28;20170;-70
2023/02/11 06:05:18;;;;;;;0.40;0.40;;;-1.10;93.10;;;;;;5035085;28;20636;-70
2023/02/11 06:07:44;;;;;;;0.40;0.40;;;-1.10;93.30;;;;;;5034726;28;20277;-70
2023/02/11 06:10:10;;;;;;;0.70;0.70;;;-1.20;93.40;;;;;;5034798;28;20602;-70
2023/02/11 06:12:37;;;;;;;0.30;0.30;;;-1.30;93.50;;;;;;5034659;28;20194;-69
2023/02/11 06:15:04;;;;;;;0.40;0.40;;;-1.30;93.60;;;;;;5033413;28;20262;-70
2023/02/11 06:17:32;;;;;;;0.45;0.45;;;-1.30;93.50;;;;;;5034372;28;20332;-70
2023/02/11 06:20:01;;;;;;;0.40;0.40;;;-1.30;93.50;;;;;;5034818;28;20578;-70
2023/02/11 06:22:27;;;;;;;0.30;0.30;;;-1.20;93.30;;;;;;5034604;28;20170;-70
2023/02/11 06:24:53;;;;;;;0.45;0.45;;;-1.20;92.90;;;;;;5033502;28;20179;-70
2023/02/11 06:27:19;;;;;;;0.70;0.70;;;-1.10;92.60;;;;;;5034064;28;20186;-70
2023/02/11 06:29:45;;;;;;;0.77;0.77;;;-1.10;92.50;;;;;;5034312;28;20202;-70
2023/02/11 06:32:11;;;;;;;0.40;0.40;;;-1.10;92.60;;;;;;5034846;28;20228;-72
2023/02/11 06:34:37;;;;;;;0.40;0.40;;;-1.10;92.50;;;;;;5035050;28;20691;-73
2023/02/11 06:37:02;;;;;;;0.30;0.30;;;-1.20;92.60;;;;;;5033343;28;20961;-71
2023/02/11 06:39:28;;;;;;;0.50;0.50;;;-1.40;92.80;;;;;;5034037;28;20402;-71
2023/02/11 06:41:54;;;;;;;0.30;0.30;;;-1.30;92.90;;;;;;5034303;28;20167;-71
2023/02/11 06:44:20;;;;;;;0.30;0.30;;;-1.20;92.90;;;;;;5033934;28;20177;-68
2023/02/11 06:46:47;;;;;;;0.40;0.40;;;-1.20;92.70;;;;;;5033729;28;20435;-70
2023/02/11 06:49:12;;;;;;;0.30;0.30;;;-1.20;92.70;;;;;;5033588;28;20453;-70
2023/02/11 06:51:38;;;;;;;0.40;0.40;;;-1.20;92.80;;;;;;5034778;28;20559;-69
2023/02/11 06:54:05;;;;;;;0.40;0.40;;;-1.10;91.80;;;;;;5034126;28;20171;-70
2023/02/11 06:56:31;;;;;;;0.40;0.40;;;-1.00;91.70;;;;;;5033377;28;20428;-70
2023/02/11 06:58:57;;;;;;;0.40;0.40;;;-1.10;91.60;;;;;;5034367;28;20185;-71
2023/02/11 07:01:25;;;;;;;0.30;0.30;;;-1.10;91.80;;;;;;5034103;28;20171;-70
2023/02/11 07:03:50;;;;;;;0.40;0.40;;;-1.10;91.60;;;;;;5034055;28;20410;-70
2023/02/11 07:06:20;;;;;;;0.30;0.30;;;-1.00;91.60;;;;;;5033837;28;20205;-70
2023/02/11 07:08:46;;;;;;;0.40;0.40;;;-0.90;91.50;;;;;;5033402;28;20209;-70
2023/02/11 07:11:15;;;;;;;0.40;0.40;;;-0.90;91.30;;;;;;5034019;28;20532;-70
2023/02/11 07:13:41;;;;;;;0.50;0.50;;;-0.90;91.60;;;;;;5033832;28;20166;-70
2023/02/11 07:16:08;;;;;;;0.40;0.40;;;-0.90;91.30;;;;;;5033590;28;20258;-70
2023/02/11 07:18:34;;;;;;;0.40;0.40;;;-0.70;91.30;;;;;;5033753;28;20547;-70
2023/02/11 07:21:04;;;;;;;0.73;0.73;;;-0.60;90.90;;;;;;5033737;28;20254;-70
2023/02/11 07:23:29;;;;;;;0.40;0.40;;;-0.50;90.50;;;;;;5033501;28;20534;-70
2023/02/11 07:25:55;;;;;;;0.30;0.30;;;-0.40;90.10;;;;;;5032166;28;20186;-70
2023/02/11 07:28:20;;;;;;;0.30;0.30;;;-0.40;90.20;;;;;;5033589;28;20207;-70
2023/02/11 07:30:46;;;;;;;0.30;0.30;;;-0.50;90.60;;;;;;5033794;28;20178;-70
2023/02/11 07:33:12;;;;;;;0.40;0.40;;;-0.50;91.10;;;;;;5033723;28;20226;-70
2023/02/11 07:35:37;;;;;;;0.60;0.60;;;-0.40;91.00;;;;;;5033636;28;20175;-70
2023/02/11 07:38:03;;;;;;;1.17;1.17;;;-0.30;90.70;;;;;;5032916;28;20194;-70
2023/02/11 07:40:30;;;;;;;0.40;0.40;;;-0.30;90.80;;;;;;5033732;28;20401;-73
2023/02/11 07:42:56;;;;;;;0.38;0.38;;;-0.10;90.80;;;;;;5033244;28;20179;-71
2023/02/11 07:45:21;;;;;;;0.40;0.40;;;0.20;90.40;;;;;;5032621;28;20175;-71
2023/02/11 07:47:47;;;;;;;0.30;0.30;;;0.50;90.60;;;;;;5032993;28;20682;-73
2023/02/11 07:50:13;;;;;;;0.57;0.57;;;0.80;90.50;;;;;;5032852;28;20164;-74
2023/02/11 07:52:38;;;;;;;0.30;0.30;;;1.10;90.30;;;;;;5033445;28;20222;-73
2023/02/11 07:55:04;;;;;;;0.50;0.50;;;1.40;90.30;;;;;;5033588;28;20252;-73
2023/02/11 07:57:30;;;;;;;0.40;0.40;;;1.80;89.20;;;;;;5035872;28;20201;-73
2023/02/11 07:59:55;;;;;;;0.37;0.37;;;2.40;86.40;;;;;;5037779;28;20232;-73
2023/02/11 08:40:19;;;;;;;2.45;1.25;;;5.90;72.30;;;;;;5037333;28;20578;-73
2023/02/11 08:42:44;;;;;;;0.77;0.77;;;5.90;72.00;;;;;;5036449;28;20232;-74
2023/02/11 08:45:11;;;;;;;0.80;0.80;;;6.80;72.50;;;;;;5035655;28;20183;-78
2023/02/11 08:47:37;;;;;;;0.85;0.85;;;8.10;69.40;;;;;;5036614;28;20198;-77
2023/02/11 08:50:03;;;;;;;3.73;2.10;;;9.10;64.40;;;;;;5036647;28;20545;-75
2023/02/11 08:52:29;;;;;;;6.57;2.40;;;10.00;59.50;;;;;;5036508;28;20433;-75
2023/02/11 08:54:55;;;;;;;5.00;2.00;;;11.00;57.70;;;;;;5036637;28;20428;-74
2023/02/11 08:57:20;;;;;;;4.97;4.53;;;11.30;55.00;;;;;;5036347;28;20175;-71
2023/02/11 08:59:46;;;;;;;6.53;3.90;;;11.30;52.40;;;;;;5036282;28;20171;-72
2023/02/11 09:02:13;;;;;;;4.23;3.70;;;11.00;51.20;;;;;;5036574;28;20290;-72
2023/02/11 09:04:39;;;;;;;5.17;4.67;;;10.30;51.50;;;;;;5036750;28;20179;-72
2023/02/11 09:07:05;;;;;;;5.27;4.90;;;9.80;54.00;;;;;;5036199;28;20413;-72
2023/02/11 09:09:30;;;;;;;3.53;3.33;;;9.20;55.00;;;;;;5035780;28;20540;-72
2023/02/11 09:11:56;;;;;;;9.30;5.77;;;8.60;56.30;;;;;;5036241;28;20286;-74
2023/02/11 09:14:23;;;;;;;3.53;3.07;;;8.30;56.80;;;;;;5036492;28;20210;-73
2023/02/11 09:16:50;;;;;;;3.33;2.95;;;8.00;56.80;;;;;;5036046;28;20171;-74
2023/02/11 09:19:17;;;;;;;2.97;2.00;;;7.90;58.00;;;;;;5036578;28;20202;-74
2023/02/11 09:21:43;;;;;;;3.85;2.70;;;7.90;59.30;;;;;;5035492;28;20211;-74
2023/02/11 09:24:09;;;;;;;6.95;3.25;;;7.90;60.80;;;;;;5035623;28;20179;-74
2023/02/11 09:26:35;;;;;;;2.73;2.60;;;7.90;60.70;;;;;;5035520;28;20639;-74
2023/02/11 09:29:02;;;;;;;3.97;2.90;;;8.00;60.60;;;;;;5036055;28;20501;-74
2023/02/11 09:31:29;;;;;;;3.05;2.85;;;8.20;61.20;;;;;;5035827;28;20202;-74
2023/02/11 09:33:59;;;;;;;2.70;2.05;;;8.20;60.30;;;;;;5036329;28;20224;-73
2023/02/11 09:36:27;;;;;;;5.85;3.08;;;8.20;58.40;;;;;;5035693;28;20181;-74
2023/02/11 09:38:54;;;;;;;2.25;2.10;;;8.30;59.20;;;;;;5035935;28;20262;-73
2023/02/11 09:41:22;;;;;;;6.40;4.68;;;8.50;59.50;;;;;;5035476;28;20198;-72
2023/02/11 09:44:01;;;;;;;2.90;2.63;;;8.40;59.60;;;;;;5035437;28;20258;-71
2023/02/11 09:46:32;;;;;;;2.53;2.33;;;8.50;60.20;;;;;;5035768;28;20542;-71
2023/02/11 09:48:58;;;;;;;1.70;1.60;;;8.70;59.80;;;;;;5035622;28;20230;-71
2023/02/11 09:51:33;;;;;;;4.30;2.97;;;9.00;59.30;;;;;;5035442;28;20247;-70
2023/02/11 09:54:04;;;;;;;2.00;1.90;;;9.50;58.60;;;;;;5034450;28;20213;-71
2023/02/11 09:56:30;;;;;;;1.40;1.40;;;10.30;57.30;;;;;;5035311;28;20394;-71
2023/02/11 09:58:55;;;;;;;4.60;2.90;;;11.00;55.20;;;;;;5035196;28;20410;-71
2023/02/11 10:01:52;;;;;;;2.60;2.20;;;12.10;53.80;;;;;;5035103;28;20434;-70
2023/02/11 10:04:56;;;;;;;1.30;1.30;;;13.60;50.40;;;;;;5035536;28;20243;-71
2023/02/11 10:07:35;;;;;;;1.47;1.37;;;15.50;46.70;;;;;;5030187;28;20431;-70
2023/02/11 10:10:10;;;;;;;1.70;1.60;;;17.80;40.70;;;;;;5035033;28;20389;-71
2023/02/11 10:13:03;;;;;;;1.60;1.17;;;19.30;38.40;;;;;;5035215;28;20456;-72
2023/02/11 10:16:01;;;;;;;1.30;1.20;;;20.50;35.50;;;;;;5033757;28;20388;-72
2023/02/11 10:18:56;;;;;;;1.43;1.20;;;21.60;35.10;;;;;;5035221;28;20398;-72
2023/02/11 10:21:42;;;;;;;1.73;1.13;;;22.40;34.30;;;;;;5034139;28;20431;-73
2023/02/11 10:24:11;;;;;;;1.30;1.20;;;22.70;32.20;;;;;;5034734;28;20938;-72
2023/02/11 10:26:39;;;;;;;2.70;0.80;;;22.80;31.40;;;;;;5034395;28;20417;-74
2023/02/11 10:29:22;;;;;;;0.83;0.83;;;23.00;30.20;;;;;;5034781;28;20449;-72
2023/02/11 10:31:49;;;;;;;1.73;1.13;;;23.20;31.00;;;;;;5034524;28;20516;-71
2023/02/11 10:34:15;;;;;;;0.80;0.80;;;23.20;30.00;;;;;;5034675;28;20779;-72
2023/02/11 10:36:43;;;;;;;0.90;0.63;;;23.00;31.20;;;;;;5034418;28;20492;-74
2023/02/11 10:39:20;;;;;;;0.60;0.60;;;22.80;30.20;;;;;;5034501;28;20170;-73
2023/02/11 10:41:47;;;;;;;1.00;0.90;;;22.80;28.80;;;;;;5034269;28;20400;-71
2023/02/11 10:44:37;;;;;;;0.80;0.73;;;22.70;28.90;;;;;;5034220;28;20456;-72
2023/02/11 10:47:18;;;;;;;1.10;0.93;;;22.20;29.10;;;;;;5034046;28;20413;-74
2023/02/11 10:49:45;;;;;;;0.67;0.67;;;21.70;27.90;;;;;;5034400;28;20383;-72
2023/02/11 10:52:17;;;;;;;0.80;0.80;;;21.30;28.20;;;;;;5034094;28;20426;-73
2023/02/11 10:55:01;;;;;;;1.60;1.07;;;20.50;30.00;;;;;;5034197;28;20405;-71
2023/02/11 10:57:56;;;;;;;0.60;0.60;;;20.30;31.10;;;;;;5033820;28;20372;-73
2023/02/11 11:00:42;;;;;;;0.60;0.60;;;20.00;29.00;;;;;;5034309;28;20422;-73
2023/02/11 11:03:22;;;;;;;0.40;0.40;;;19.60;28.80;;;;;;5033909;28;20513;-71
2023/02/11 11:05:59;;;;;;;0.43;0.43;;;19.30;29.80;;;;;;5033967;28;20455;-71
2023/02/11 11:08:58;;;;;;;1.30;0.97;;;19.00;29.40;;;;;;5032675;28;20534;-72
2023/02/11 11:11:25;;;;;;;0.50;0.50;;;18.40;29.40;;;;;;5022064;28;20537;-73
2023/02/11 11:13:59;;;;;;;0.80;0.60;;;18.00;29.80;;;;;;5032295;28;20414;-73
2023/02/11 11:16:31;;;;;;;1.43;0.53;;;17.50;29.50;;;;;;5033764;28;20408;-73
2023/02/11 11:19:06;;;;;;;0.60;0.60;;;17.00;29.60;;;;;;5033753;28;20455;-73
2023/02/11 11:21:46;;;;;;;2.40;1.33;;;16.50;30.30;;;;;;5033756;28;20423;-73
2023/02/11 11:24:28;;;;;;;2.70;0.60;;;15.90;31.20;;;;;;5033751;28;20880;-71
2023/02/11 11:27:02;;;;;;;1.07;0.97;;;15.30;32.50;;;;;;5033433;28;20416;-72
2023/02/11 11:29:48;;;;;;;1.00;1.00;;;14.60;32.00;;;;;;5033548;28;20834;-72
2023/02/11 11:32:22;;;;;;;1.17;0.60;;;13.80;32.30;;;;;;5033469;28;20418;-72
2023/02/11 11:34:57;;;;;;;2.93;1.43;;;13.40;33.30;;;;;;5033588;28;20475;-72
2023/02/11 11:37:26;;;;;;;0.60;0.50;;;13.10;34.50;;;;;;5033451;28;20460;-72
2023/02/11 11:40:12;;;;;;;0.50;0.50;;;12.80;34.30;;;;;;5033534;28;20516;-73
2023/02/11 11:42:38;;;;;;;0.63;0.63;;;12.60;34.30;;;;;;5029488;28;20429;-73
2023/02/11 11:45:18;;;;;;;4.10;0.60;;;12.50;36.20;;;;;;5033477;28;20414;-72
2023/02/11 11:48:11;;;;;;;0.87;0.87;;;12.30;36.10;;;;;;5033128;28;20491;-71
2023/02/11 11:51:10;;;;;;;1.30;1.20;;;12.00;35.60;;;;;;5033489;28;20497;-72
2023/02/11 11:53:42;;;;;;;1.03;1.03;;;11.60;36.50;;;;;;5033305;28;20382;-70
2023/02/11 11:56:15;;;;;;;0.70;0.70;;;11.50;38.20;;;;;;5033606;28;20402;-72
2023/02/11 11:58:41;;;;;;;1.03;1.03;;;11.40;38.50;;;;;;5032014;28;20898;-72
2023/02/11 12:01:07;;;;;;;0.80;0.67;;;11.20;36.70;;;;;;5033419;28;20436;-71
2023/02/11 12:04:02;;;;;;;2.30;1.10;;;11.10;37.80;;;;;;5033387;28;20175;-71
2023/02/11 12:07:01;;;;;;;1.03;0.93;;;11.10;38.00;;;;;;5014158;28;20188;-70
2023/02/11 12:09:30;;;;;;;0.57;0.57;;;11.00;38.60;;;;;;5033113;28;20840;-73
2023/02/11 12:12:07;;;;;;;1.20;1.20;;;11.00;39.90;;;;;;5033031;28;20430;-73
2023/02/11 12:14:36;;;;;;;1.77;1.27;;;10.80;38.50;;;;;;5033068;28;20386;-72
2023/02/11 12:17:41;;;;;;;0.80;0.80;;;10.70;38.50;;;;;;5032978;28;20401;-71
2023/02/11 12:20:30;;;;;;;1.58;0.80;;;10.70;40.20;;;;;;5033256;28;20170;-73
2023/02/11 12:23:19;;;;;;;1.23;1.20;;;10.70;40.80;;;;;;5033238;28;20195;-72
2023/02/11 12:25:49;;;;;;;0.63;0.63;;;10.50;41.30;;;;;;5033342;28;20229;-72
2023/02/11 12:28:52;;;;;;;1.20;1.20;;;10.30;41.10;;;;;;5033171;28;20285;-71
2023/02/11 12:31:27;;;;;;;1.30;1.02;;;10.10;41.30;;;;;;5033075;28;20194;-72
2023/02/11 12:33:58;;;;;;;2.75;1.83;;;9.90;43.10;;;;;;5033062;28;20571;-71
2023/02/11 12:36:33;;;;;;;1.80;1.58;;;9.90;43.90;;;;;;5032996;28;20217;-73
2023/02/11 12:39:05;;;;;;;3.00;1.48;;;9.90;44.40;;;;;;5033068;28;20174;-71
2023/02/11 12:45:01;;;;;;;1.13;1.02;;;10.10;45.80;;;;;;5035735;28;20205;-71
2023/02/11 12:47:27;;;;;;;2.25;1.30;;;9.80;45.00;;;;;;5036525;28;20175;-73
2023/02/11 12:50:10;;;;;;;4.27;1.40;;;9.90;45.50;;;;;;5036625;28;20177;-72
2023/02/11 12:52:54;;;;;;;1.77;1.45;;;9.80;45.00;;;;;;5036434;28;20183;-70
2023/02/11 12:55:30;;;;;;;0.98;0.93;;;9.60;45.70;;;;;;5036545;28;20642;-71
2023/02/11 12:58:00;;;;;;;1.42;1.33;;;9.50;46.50;;;;;;5036329;28;20178;-71
2023/02/11 13:00:39;;;;;;;5.38;2.63;;;9.50;46.90;;;;;;5036476;28;20167;-70
2023/02/11 13:03:12;;;;;;;2.35;1.30;;;9.50;46.20;;;;;;5036213;28;20216;-72
2023/02/11 13:05:48;;;;;;;2.10;1.92;;;9.50;45.40;;;;;;5036364;28;20178;-71
2023/02/11 13:08:27;;;;;;;1.38;0.95;;;9.40;46.80;;;;;;5036039;28;20225;-72
2023/02/11 13:10:59;;;;;;;0.88;0.85;;;9.30;48.70;;;;;;5036232;28;20167;-71
2023/02/11 13:13:29;;;;;;;1.33;1.30;;;9.10;48.60;;;;;;5036110;28;20177;-71
2023/02/11 13:16:03;;;;;;;1.30;1.30;;;9.00;48.40;;;;;;5035926;28;20174;-71
2023/02/11 13:18:48;;;;;;;0.70;0.70;;;8.70;47.70;;;;;;5036278;28;20174;-72
2023/02/11 13:21:13;;;;;;;1.10;1.10;;;8.60;48.20;;;;;;5035389;28;20194;-71
2023/02/11 13:23:58;;;;;;;0.67;0.60;;;8.50;48.70;;;;;;5036026;28;20177;-71
2023/02/11 13:26:38;;;;;;;3.30;3.03;;;8.50;48.40;;;;;;5035417;28;20254;-71
2023/02/11 13:29:31;;;;;;;1.50;1.50;;;8.60;48.40;;;;;;5036194;28;20201;-72
2023/02/11 13:32:15;;;;;;;0.50;0.50;;;8.50;50.90;;;;;;5036069;28;20214;-67
2023/02/11 13:34:40;;;;;;;0.93;0.93;;;8.40;49.60;;;;;;5036011;28;20178;-69
2023/02/11 13:37:29;;;;;;;1.67;1.37;;;8.40;49.60;;;;;;5035204;28;20170;-69
2023/02/11 13:40:18;;;;;;;0.50;0.50;;;8.40;50.40;;;;;;5032177;28;20613;-69
2023/02/11 13:42:55;;;;;;;2.15;2.05;;;8.30;50.60;;;;;;5035634;28;20232;-69
2023/02/11 13:45:27;;;;;;;1.48;1.38;;;8.20;51.30;;;;;;5034897;28;20239;-70
2023/02/11 13:48:03;;;;;;;0.88;0.88;;;8.10;51.70;;;;;;5035732;28;20201;-69
2023/02/11 13:50:34;;;;;;;1.85;1.77;;;8.10;51.50;;;;;;5036061;28;20184;-67
2023/02/11 13:53:03;;;;;;;0.85;0.85;;;8.00;52.50;;;;;;5035688;28;20277;-68
2023/02/11 13:55:30;;;;;;;0.68;0.68;;;7.90;53.10;;;;;;5035510;28;20166;-69